BIENTÔT MET'MAP
version 2.0 !

Prévue avant fin octobre,
la nouvelle version sera
plus belle, plus complète
et hébergée sur un serveur
3 fois plus puissant...
et toujours gratuite !


Pas compatible ?
Essayez la version Mobile !

SE CONNECTER : | S'inscrire | Disclaimer | Découvrir Orbifly |
Code OACI :

TAF - LTAN Konya AB - 02 Jun 2020 14:41 UTC - Data Source NOAA   


- Altitude de l'aérodrome : 3381 ft
- Code IATA : KYA
- Pas de NOTAMs connus.


LTAN - Konya AB

Dernier METAR connu : 2015/08/11 07:50 LTAN 110750Z 16006KT 110V210 9999 FEW040 28/13 Q1013 NOSIG
TAF TAF LTAN
Valide du 02 à 12h jusqu'au 02 à 21h UTC


021040Z 0212/0221 35008KT 9999 -SHRA FEW025CB BKN035
TEMPO 0212/0213 29015KT -TSRA
BECMG 0218/0220 SCT040 BKN100

Source NOAA


MET'MAP, la Météo Aéronautique d'un coup d'oeil ! - Copyright ORBIFLY Décembre 2007

Développement & Programmation : Alexandra Zaïnal
Co-Développement : Marc-Olivier Méhu
Soutien technique & logistique : Manuel Goepfert
Conception & Financement : Baudouin d'Aumeries